N77VJ KIND-KORL
Flight info
| Callsign | N77VJ |
|---|---|
| Flight time | 1h 49m |
| Altitude | 41000 |
| Route | DAWNN1DAWNN MJKALJAFAR3 |
| Aircraft | C25C/L-SDFGIRWYZ/C |
Departure
| Time | 2026-05-04 23:05 |
|---|---|
| Airport | Indianapolis International Airport (KIND) |
Arrival
| Time | 2026-05-05 00:55 |
|---|---|
| Airport | Orlando Executive Airport (KORL) |
| Time | Latitude | Longitude | Altitude | Speed | Heading |
|---|---|---|---|---|---|
| 2026-05-04 22:50 | 39.73064 | -86.27882 | 794 ft | 0 kts | 134° |
| 2026-05-04 22:56 | 39.73064 | -86.27881 | 794 ft | 1 kts | 120° |
| 2026-05-04 22:56 | 39.73116 | -86.27841 | 793 ft | 18 kts | 26° |
| 2026-05-04 22:57 | 39.73224 | -86.27780 | 795 ft | 16 kts | 45° |
| 2026-05-04 22:57 | 39.73311 | -86.27714 | 795 ft | 15 kts | 343° |
| 2026-05-04 22:57 | 39.73372 | -86.27787 | 795 ft | 7 kts | 284° |
| 2026-05-04 22:57 | 39.73347 | -86.27854 | 795 ft | 10 kts | 223° |
| 2026-05-04 22:58 | 39.73294 | -86.27919 | 795 ft | 12 kts | 223° |
| 2026-05-04 22:58 | 39.73229 | -86.28004 | 794 ft | 15 kts | 224° |
| 2026-05-04 22:58 | 39.73150 | -86.28104 | 793 ft | 17 kts | 225° |
| 2026-05-04 22:58 | 39.73065 | -86.28096 | 791 ft | 13 kts | 137° |
| 2026-05-04 22:59 | 39.73005 | -86.28019 | 791 ft | 11 kts | 136° |
| 2026-05-04 22:59 | 39.72930 | -86.27937 | 790 ft | 17 kts | 166° |
| 2026-05-04 22:59 | 39.72817 | -86.28030 | 787 ft | 22 kts | 224° |
| 2026-05-04 22:59 | 39.72718 | -86.28156 | 788 ft | 18 kts | 225° |
| 2026-05-04 23:00 | 39.72628 | -86.28271 | 790 ft | 16 kts | 227° |
| 2026-05-04 23:00 | 39.72561 | -86.28357 | 792 ft | 12 kts | 224° |
| 2026-05-04 23:00 | 39.72504 | -86.28430 | 792 ft | 12 kts | 225° |
| 2026-05-04 23:00 | 39.72451 | -86.28497 | 792 ft | 10 kts | 224° |
| 2026-05-04 23:01 | 39.72391 | -86.28515 | 791 ft | 10 kts | 142° |
| 2026-05-04 23:01 | 39.72342 | -86.28450 | 791 ft | 10 kts | 135° |
| 2026-05-04 23:01 | 39.72300 | -86.28395 | 792 ft | 7 kts | 133° |
| 2026-05-04 23:01 | 39.72258 | -86.28338 | 792 ft | 9 kts | 134° |
| 2026-05-04 23:02 | 39.72211 | -86.28275 | 791 ft | 10 kts | 134° |
| 2026-05-04 23:02 | 39.72157 | -86.28205 | 791 ft | 11 kts | 133° |
| 2026-05-04 23:02 | 39.72106 | -86.28137 | 792 ft | 10 kts | 135° |
| 2026-05-04 23:02 | 39.72062 | -86.28080 | 793 ft | 8 kts | 134° |
| 2026-05-04 23:03 | 39.72042 | -86.28054 | 793 ft | 0 kts | 136° |
| 2026-05-04 23:03 | 39.72041 | -86.28053 | 796 ft | 3 kts | 135° |
| 2026-05-04 23:04 | 39.71978 | -86.27978 | 794 ft | 12 kts | 167° |
| 2026-05-04 23:04 | 39.71937 | -86.28008 | 794 ft | 0 kts | 224° |
| 2026-05-04 23:05 | 39.71885 | -86.28075 | 793 ft | 39 kts | 225° |
| 2026-05-04 23:05 | 39.71487 | -86.28580 | 831 ft | 114 kts | 223° |
| 2026-05-04 23:05 | 39.70903 | -86.29403 | 1322 ft | 135 kts | 227° |
| 2026-05-04 23:05 | 39.70217 | -86.30400 | 1871 ft | 160 kts | 225° |
| 2026-05-04 23:06 | 39.69408 | -86.31530 | 2568 ft | 175 kts | 225° |
| 2026-05-04 23:06 | 39.68584 | -86.32684 | 3263 ft | 176 kts | 224° |
| 2026-05-04 23:06 | 39.67757 | -86.33850 | 3961 ft | 175 kts | 225° |
| 2026-05-04 23:06 | 39.66932 | -86.34980 | 4776 ft | 170 kts | 226° |
| 2026-05-04 23:07 | 39.66029 | -86.36005 | 5645 ft | 182 kts | 210° |
| 2026-05-04 23:07 | 39.64684 | -86.36145 | 6534 ft | 205 kts | 185° |
| 2026-05-04 23:07 | 39.63236 | -86.35699 | 7392 ft | 219 kts | 173° |
| 2026-05-04 23:07 | 39.61778 | -86.35064 | 8263 ft | 226 kts | 172° |
| 2026-05-04 23:08 | 39.60258 | -86.34620 | 9167 ft | 219 kts | 190° |
| 2026-05-04 23:08 | 39.58683 | -86.34589 | 10051 ft | 239 kts | 192° |
| 2026-05-04 23:08 | 39.56922 | -86.34543 | 10925 ft | 267 kts | 187° |
| 2026-05-04 23:08 | 39.54990 | -86.34318 | 11827 ft | 291 kts | 183° |
| 2026-05-04 23:09 | 39.52905 | -86.34027 | 12760 ft | 310 kts | 183° |
| 2026-05-04 23:09 | 39.50720 | -86.33751 | 13691 ft | 326 kts | 183° |
| 2026-05-04 23:09 | 39.48398 | -86.33494 | 14566 ft | 340 kts | 183° |
| 2026-05-04 23:09 | 39.46019 | -86.33218 | 15454 ft | 353 kts | 183° |
| 2026-05-04 23:10 | 39.43528 | -86.32923 | 16365 ft | 363 kts | 183° |
| 2026-05-04 23:10 | 39.40971 | -86.32619 | 17303 ft | 372 kts | 183° |
| 2026-05-04 23:10 | 39.38359 | -86.32310 | 18235 ft | 379 kts | 183° |
| 2026-05-04 23:10 | 39.35727 | -86.32005 | 19071 ft | 385 kts | 183° |
| 2026-05-04 23:11 | 39.33029 | -86.31686 | 19938 ft | 389 kts | 183° |
| 2026-05-04 23:11 | 39.30316 | -86.31370 | 20822 ft | 392 kts | 184° |
| 2026-05-04 23:11 | 39.27610 | -86.31050 | 21723 ft | 394 kts | 184° |
| 2026-05-04 23:11 | 39.24853 | -86.30731 | 22665 ft | 396 kts | 184° |
| 2026-05-04 23:12 | 39.22127 | -86.30411 | 23579 ft | 395 kts | 184° |
| 2026-05-04 23:12 | 39.19383 | -86.30090 | 24352 ft | 395 kts | 184° |
| 2026-05-04 23:12 | 39.16625 | -86.29772 | 25076 ft | 397 kts | 184° |
| 2026-05-04 23:12 | 39.13895 | -86.29455 | 25798 ft | 398 kts | 184° |
| 2026-05-04 23:13 | 39.11126 | -86.29128 | 26558 ft | 398 kts | 184° |
| 2026-05-04 23:13 | 39.08360 | -86.28809 | 27331 ft | 397 kts | 184° |
| 2026-05-04 23:13 | 39.05641 | -86.28492 | 28127 ft | 395 kts | 184° |
| 2026-05-04 23:13 | 39.02833 | -86.28165 | 28963 ft | 393 kts | 184° |
| 2026-05-04 23:14 | 39.00077 | -86.27846 | 29813 ft | 389 kts | 185° |
| 2026-05-04 23:14 | 38.97415 | -86.27537 | 30532 ft | 385 kts | 185° |
| 2026-05-04 23:14 | 38.94754 | -86.27228 | 31265 ft | 380 kts | 185° |
| 2026-05-04 23:14 | 38.92133 | -86.26925 | 31977 ft | 376 kts | 185° |
| 2026-05-04 23:15 | 38.89522 | -86.26628 | 32489 ft | 376 kts | 186° |
| 2026-05-04 23:15 | 38.86935 | -86.26331 | 33001 ft | 377 kts | 185° |
| 2026-05-04 23:15 | 38.84310 | -86.26027 | 33512 ft | 377 kts | 185° |
| 2026-05-04 23:15 | 38.81704 | -86.25727 | 33891 ft | 380 kts | 185° |
| 2026-05-04 23:16 | 38.79041 | -86.25421 | 34238 ft | 383 kts | 185° |
| 2026-05-04 23:16 | 38.76378 | -86.25115 | 34596 ft | 385 kts | 185° |
| 2026-05-04 23:16 | 38.73729 | -86.24808 | 34900 ft | 388 kts | 184° |
| 2026-05-04 23:16 | 38.71016 | -86.24499 | 35194 ft | 391 kts | 184° |
| 2026-05-04 23:17 | 38.68284 | -86.24185 | 35496 ft | 394 kts | 184° |
| 2026-05-04 23:17 | 38.65572 | -86.23872 | 35793 ft | 397 kts | 184° |
| 2026-05-04 23:17 | 38.62799 | -86.23554 | 36105 ft | 399 kts | 184° |
| 2026-05-04 23:17 | 38.60016 | -86.23235 | 36413 ft | 400 kts | 184° |
| 2026-05-04 23:18 | 38.57249 | -86.22762 | 36726 ft | 408 kts | 176° |
| 2026-05-04 23:18 | 38.54474 | -86.21824 | 37137 ft | 414 kts | 169° |
| 2026-05-04 23:18 | 38.51776 | -86.20603 | 37571 ft | 412 kts | 168° |
| 2026-05-04 23:18 | 38.49060 | -86.19397 | 38013 ft | 410 kts | 168° |
| 2026-05-04 23:19 | 38.46373 | -86.18213 | 38454 ft | 408 kts | 168° |
| 2026-05-04 23:19 | 38.43712 | -86.17028 | 38808 ft | 405 kts | 168° |
| 2026-05-04 23:19 | 38.41042 | -86.15838 | 39016 ft | 408 kts | 168° |
| 2026-05-04 23:19 | 38.38337 | -86.14639 | 39165 ft | 412 kts | 168° |
| 2026-05-04 23:20 | 38.35640 | -86.13443 | 39324 ft | 415 kts | 168° |
| 2026-05-04 23:20 | 38.32906 | -86.12228 | 39482 ft | 418 kts | 168° |
| 2026-05-04 23:20 | 38.30141 | -86.11003 | 39648 ft | 421 kts | 168° |
| 2026-05-04 23:20 | 38.27364 | -86.09772 | 39811 ft | 423 kts | 168° |
| 2026-05-04 23:21 | 38.24588 | -86.08545 | 39984 ft | 425 kts | 168° |
| 2026-05-04 23:21 | 38.21783 | -86.07305 | 40155 ft | 427 kts | 168° |
| 2026-05-04 23:21 | 38.18949 | -86.06052 | 40327 ft | 429 kts | 168° |
| 2026-05-04 23:21 | 38.16143 | -86.04814 | 40493 ft | 431 kts | 168° |
| 2026-05-04 23:22 | 38.13306 | -86.03562 | 40665 ft | 431 kts | 168° |
| 2026-05-04 23:22 | 38.10456 | -86.02306 | 40771 ft | 432 kts | 168° |
| 2026-05-04 23:22 | 38.04748 | -85.99795 | 40817 ft | 438 kts | 167° |
| 2026-05-04 23:23 | 37.98966 | -85.97255 | 40838 ft | 443 kts | 167° |
| 2026-05-04 23:23 | 37.93107 | -85.94685 | 40840 ft | 448 kts | 167° |
| 2026-05-04 23:24 | 37.87209 | -85.92103 | 40844 ft | 451 kts | 167° |
| 2026-05-04 23:24 | 37.81249 | -85.89495 | 40847 ft | 454 kts | 167° |
| 2026-05-04 23:25 | 37.75249 | -85.86878 | 40876 ft | 457 kts | 167° |
| 2026-05-04 23:25 | 37.69196 | -85.84241 | 40877 ft | 460 kts | 167° |
| 2026-05-04 23:26 | 37.63142 | -85.81607 | 40872 ft | 461 kts | 167° |
| 2026-05-04 23:26 | 37.57061 | -85.78968 | 40877 ft | 463 kts | 167° |
| 2026-05-04 23:27 | 37.50985 | -85.76335 | 40867 ft | 464 kts | 167° |
| 2026-05-04 23:27 | 37.44896 | -85.73700 | 40862 ft | 462 kts | 167° |
| 2026-05-04 23:28 | 37.38812 | -85.71072 | 40878 ft | 459 kts | 167° |
| 2026-05-04 23:28 | 37.32792 | -85.68475 | 40880 ft | 457 kts | 167° |
| 2026-05-04 23:29 | 37.26798 | -85.65897 | 40888 ft | 456 kts | 167° |
| 2026-05-04 23:29 | 37.20798 | -85.63318 | 40890 ft | 454 kts | 167° |
| 2026-05-04 23:30 | 37.14832 | -85.60759 | 40878 ft | 453 kts | 167° |
| 2026-05-04 23:30 | 37.09849 | -85.58625 | 40882 ft | 452 kts | 167° |
| 2026-05-04 23:31 | 37.03910 | -85.56085 | 40885 ft | 452 kts | 167° |
| 2026-05-04 23:31 | 36.97944 | -85.53538 | 40888 ft | 451 kts | 167° |
| 2026-05-04 23:32 | 36.92047 | -85.51024 | 40895 ft | 450 kts | 167° |
| 2026-05-04 23:32 | 36.86091 | -85.48489 | 40894 ft | 450 kts | 167° |
| 2026-05-04 23:33 | 36.80168 | -85.45972 | 40900 ft | 450 kts | 167° |
| 2026-05-04 23:33 | 36.74222 | -85.43451 | 40902 ft | 449 kts | 167° |
| 2026-05-04 23:34 | 36.68336 | -85.40958 | 40902 ft | 449 kts | 167° |
| 2026-05-04 23:34 | 36.62432 | -85.38462 | 40909 ft | 449 kts | 167° |
| 2026-05-04 23:35 | 36.56529 | -85.35971 | 40910 ft | 448 kts | 167° |
| 2026-05-04 23:35 | 36.50600 | -85.33472 | 40912 ft | 448 kts | 167° |
| 2026-05-04 23:36 | 36.44671 | -85.30979 | 40922 ft | 448 kts | 167° |
| 2026-05-04 23:36 | 36.38764 | -85.28495 | 40923 ft | 448 kts | 167° |
| 2026-05-04 23:37 | 36.32857 | -85.26019 | 40932 ft | 448 kts | 168° |
| 2026-05-04 23:37 | 36.26954 | -85.23548 | 40931 ft | 449 kts | 168° |
| 2026-05-04 23:38 | 36.21046 | -85.21076 | 40956 ft | 448 kts | 168° |
| 2026-05-04 23:38 | 36.15111 | -85.18602 | 40932 ft | 452 kts | 167° |
| 2026-05-04 23:39 | 36.09147 | -85.16116 | 40979 ft | 455 kts | 167° |
| 2026-05-04 23:39 | 36.03135 | -85.13614 | 40990 ft | 458 kts | 167° |
| 2026-05-04 23:40 | 35.97075 | -85.11097 | 40990 ft | 461 kts | 167° |
| 2026-05-04 23:40 | 35.90993 | -85.08576 | 40992 ft | 463 kts | 167° |
| 2026-05-04 23:41 | 35.84866 | -85.06039 | 40987 ft | 465 kts | 167° |
| 2026-05-04 23:41 | 35.78690 | -85.03485 | 40981 ft | 467 kts | 167° |
| 2026-05-04 23:42 | 35.72537 | -85.00947 | 40974 ft | 469 kts | 167° |
| 2026-05-04 23:42 | 35.66319 | -84.98384 | 40960 ft | 470 kts | 167° |
| 2026-05-04 23:43 | 35.60111 | -84.95831 | 40951 ft | 471 kts | 167° |
| 2026-05-04 23:43 | 35.53911 | -84.93285 | 40960 ft | 472 kts | 167° |
| 2026-05-04 23:44 | 35.47640 | -84.90716 | 40960 ft | 473 kts | 167° |
| 2026-05-04 23:44 | 35.41406 | -84.88163 | 40957 ft | 474 kts | 167° |
| 2026-05-04 23:45 | 35.35158 | -84.85610 | 40961 ft | 474 kts | 167° |
| 2026-05-04 23:45 | 35.28882 | -84.83050 | 40962 ft | 475 kts | 167° |
| 2026-05-04 23:46 | 35.22605 | -84.80493 | 40962 ft | 475 kts | 167° |
| 2026-05-04 23:46 | 35.16313 | -84.77935 | 40961 ft | 476 kts | 167° |
| 2026-05-04 23:47 | 35.10046 | -84.75390 | 40962 ft | 476 kts | 167° |
| 2026-05-04 23:47 | 35.03734 | -84.72832 | 40966 ft | 477 kts | 167° |
| 2026-05-04 23:48 | 34.97447 | -84.70287 | 40967 ft | 477 kts | 167° |
| 2026-05-04 23:48 | 34.91155 | -84.67747 | 40984 ft | 477 kts | 167° |
| 2026-05-04 23:49 | 34.84839 | -84.65198 | 40989 ft | 478 kts | 167° |
| 2026-05-04 23:49 | 34.78526 | -84.62656 | 40994 ft | 478 kts | 167° |
| 2026-05-04 23:50 | 34.72221 | -84.60122 | 40994 ft | 478 kts | 168° |
| 2026-05-04 23:50 | 34.65879 | -84.57577 | 40993 ft | 478 kts | 167° |
| 2026-05-04 23:51 | 34.59578 | -84.55051 | 40993 ft | 478 kts | 168° |
| 2026-05-04 23:51 | 34.53227 | -84.52510 | 41006 ft | 478 kts | 168° |
| 2026-05-04 23:52 | 34.46928 | -84.49993 | 41014 ft | 479 kts | 168° |
| 2026-05-04 23:52 | 34.40598 | -84.47470 | 41025 ft | 479 kts | 168° |
| 2026-05-04 23:53 | 34.34291 | -84.44958 | 41030 ft | 479 kts | 168° |
| 2026-05-04 23:53 | 34.27937 | -84.42432 | 41028 ft | 479 kts | 168° |
| 2026-05-04 23:54 | 34.21618 | -84.39925 | 41031 ft | 479 kts | 168° |
| 2026-05-04 23:54 | 34.15292 | -84.37417 | 41016 ft | 479 kts | 168° |
| 2026-05-04 23:55 | 34.08968 | -84.34916 | 41008 ft | 480 kts | 168° |
| 2026-05-04 23:56 | 33.99460 | -84.31161 | 41013 ft | 480 kts | 168° |
| 2026-05-04 23:56 | 33.93086 | -84.28649 | 41020 ft | 480 kts | 168° |
| 2026-05-04 23:57 | 33.86753 | -84.26157 | 41016 ft | 480 kts | 168° |
| 2026-05-04 23:57 | 33.80410 | -84.23665 | 41018 ft | 480 kts | 168° |
| 2026-05-04 23:58 | 33.74046 | -84.21168 | 41020 ft | 480 kts | 168° |
| 2026-05-04 23:58 | 33.67709 | -84.18687 | 41027 ft | 480 kts | 168° |
| 2026-05-04 23:59 | 33.61335 | -84.16195 | 41023 ft | 480 kts | 168° |
| 2026-05-04 23:59 | 33.54986 | -84.13715 | 41037 ft | 481 kts | 168° |
| 2026-05-05 00:00 | 33.48612 | -84.11231 | 41041 ft | 481 kts | 168° |
| 2026-05-05 00:00 | 33.42260 | -84.08758 | 41041 ft | 481 kts | 168° |
| 2026-05-05 00:01 | 33.35886 | -84.06280 | 41041 ft | 481 kts | 168° |
| 2026-05-05 00:01 | 33.29535 | -84.03816 | 41035 ft | 481 kts | 168° |
| 2026-05-05 00:02 | 33.23161 | -84.01346 | 41028 ft | 481 kts | 168° |
| 2026-05-05 00:02 | 33.16798 | -83.98886 | 41025 ft | 482 kts | 169° |
| 2026-05-05 00:03 | 33.10418 | -83.96422 | 41027 ft | 482 kts | 168° |
| 2026-05-05 00:03 | 33.04007 | -83.93949 | 41033 ft | 482 kts | 169° |
| 2026-05-05 00:04 | 32.97626 | -83.91491 | 41035 ft | 483 kts | 169° |
| 2026-05-05 00:04 | 32.91234 | -83.89034 | 41023 ft | 483 kts | 169° |
| 2026-05-05 00:05 | 32.84812 | -83.86569 | 41029 ft | 483 kts | 169° |
| 2026-05-05 00:05 | 32.78414 | -83.84116 | 41034 ft | 483 kts | 169° |
| 2026-05-05 00:06 | 32.72031 | -83.81673 | 41035 ft | 483 kts | 169° |
| 2026-05-05 00:06 | 32.65636 | -83.79229 | 41034 ft | 484 kts | 169° |
| 2026-05-05 00:07 | 32.59199 | -83.76773 | 41057 ft | 484 kts | 169° |
| 2026-05-05 00:07 | 32.52790 | -83.74332 | 41055 ft | 484 kts | 169° |
| 2026-05-05 00:08 | 32.46366 | -83.71886 | 41055 ft | 484 kts | 169° |
| 2026-05-05 00:08 | 32.39960 | -83.69454 | 41052 ft | 485 kts | 169° |
| 2026-05-05 00:09 | 32.33555 | -83.67025 | 41045 ft | 485 kts | 169° |
| 2026-05-05 00:09 | 32.27108 | -83.64583 | 41043 ft | 485 kts | 169° |
| 2026-05-05 00:10 | 32.20697 | -83.62158 | 41034 ft | 485 kts | 170° |
| 2026-05-05 00:10 | 32.14226 | -83.59714 | 41040 ft | 485 kts | 170° |
| 2026-05-05 00:11 | 32.07809 | -83.57295 | 41037 ft | 485 kts | 170° |
| 2026-05-05 00:11 | 32.02472 | -83.55285 | 41043 ft | 485 kts | 170° |
| 2026-05-05 00:12 | 31.94966 | -83.52464 | 41038 ft | 485 kts | 170° |
| 2026-05-05 00:12 | 31.89603 | -83.50451 | 41040 ft | 485 kts | 170° |
| 2026-05-05 00:13 | 31.83147 | -83.48029 | 41041 ft | 485 kts | 170° |
| 2026-05-05 00:13 | 31.76735 | -83.45628 | 41046 ft | 485 kts | 170° |
| 2026-05-05 00:14 | 31.70312 | -83.43229 | 41050 ft | 485 kts | 170° |
| 2026-05-05 00:14 | 31.63848 | -83.40815 | 41052 ft | 485 kts | 170° |
| 2026-05-05 00:15 | 31.57402 | -83.38412 | 41049 ft | 485 kts | 170° |
| 2026-05-05 00:15 | 31.50979 | -83.36023 | 41051 ft | 485 kts | 170° |
| 2026-05-05 00:16 | 31.44570 | -83.33640 | 41050 ft | 485 kts | 170° |
| 2026-05-05 00:16 | 31.38115 | -83.31243 | 41046 ft | 485 kts | 170° |
| 2026-05-05 00:17 | 31.31694 | -83.28864 | 41038 ft | 485 kts | 170° |
| 2026-05-05 00:17 | 31.25271 | -83.26488 | 41032 ft | 484 kts | 170° |
| 2026-05-05 00:18 | 31.18856 | -83.24117 | 41020 ft | 484 kts | 170° |
| 2026-05-05 00:18 | 31.12414 | -83.21739 | 41018 ft | 484 kts | 170° |
| 2026-05-05 00:19 | 31.06015 | -83.19382 | 41016 ft | 483 kts | 170° |
| 2026-05-05 00:19 | 30.99658 | -83.17043 | 41019 ft | 483 kts | 170° |
| 2026-05-05 00:20 | 30.93226 | -83.14680 | 41016 ft | 483 kts | 170° |
| 2026-05-05 00:20 | 30.86831 | -83.12332 | 41019 ft | 482 kts | 170° |
| 2026-05-05 00:21 | 30.80483 | -83.09652 | 41036 ft | 489 kts | 163° |
| 2026-05-05 00:21 | 30.74590 | -83.05561 | 41043 ft | 503 kts | 146° |
| 2026-05-05 00:22 | 30.69560 | -82.99807 | 41048 ft | 509 kts | 137° |
| 2026-05-05 00:22 | 30.64549 | -82.94113 | 41057 ft | 503 kts | 145° |
| 2026-05-05 00:23 | 30.59136 | -82.88947 | 41063 ft | 503 kts | 144° |
| 2026-05-05 00:23 | 30.53986 | -82.83440 | 41064 ft | 503 kts | 143° |
| 2026-05-05 00:24 | 30.48689 | -82.78128 | 41061 ft | 502 kts | 144° |
| 2026-05-05 00:24 | 30.43486 | -82.72750 | 41059 ft | 502 kts | 143° |
| 2026-05-05 00:25 | 30.38322 | -82.67495 | 41053 ft | 501 kts | 144° |
| 2026-05-05 00:25 | 30.33097 | -82.62160 | 41053 ft | 501 kts | 144° |
| 2026-05-05 00:26 | 30.27885 | -82.56849 | 41045 ft | 500 kts | 144° |
| 2026-05-05 00:26 | 30.22648 | -82.51524 | 41012 ft | 500 kts | 144° |
| 2026-05-05 00:26 | 30.20066 | -82.48895 | 40428 ft | 493 kts | 144° |
| 2026-05-05 00:27 | 30.17509 | -82.46297 | 39792 ft | 485 kts | 144° |
| 2026-05-05 00:27 | 30.14890 | -82.43865 | 39160 ft | 473 kts | 151° |
| 2026-05-05 00:27 | 30.12171 | -82.41880 | 38516 ft | 461 kts | 158° |
| 2026-05-05 00:27 | 30.09315 | -82.40275 | 37893 ft | 446 kts | 165° |
| 2026-05-05 00:28 | 30.06461 | -82.39086 | 37321 ft | 432 kts | 172° |
| 2026-05-05 00:28 | 30.03571 | -82.38238 | 36760 ft | 421 kts | 176° |
| 2026-05-05 00:28 | 30.00761 | -82.37464 | 36213 ft | 417 kts | 175° |
| 2026-05-05 00:28 | 29.97933 | -82.36677 | 35670 ft | 416 kts | 175° |
| 2026-05-05 00:29 | 29.95116 | -82.35896 | 35124 ft | 414 kts | 175° |
| 2026-05-05 00:29 | 29.92337 | -82.35130 | 34587 ft | 415 kts | 176° |
| 2026-05-05 00:29 | 29.89498 | -82.34353 | 34031 ft | 421 kts | 175° |
| 2026-05-05 00:29 | 29.86667 | -82.33572 | 33439 ft | 426 kts | 175° |
| 2026-05-05 00:30 | 29.83791 | -82.32776 | 32880 ft | 430 kts | 175° |
| 2026-05-05 00:30 | 29.80828 | -82.31961 | 32303 ft | 442 kts | 175° |
| 2026-05-05 00:30 | 29.77793 | -82.31129 | 31710 ft | 453 kts | 175° |
| 2026-05-05 00:30 | 29.74688 | -82.30354 | 31106 ft | 456 kts | 176° |
| 2026-05-05 00:31 | 29.71568 | -82.29589 | 30497 ft | 458 kts | 176° |
| 2026-05-05 00:31 | 29.68475 | -82.28820 | 29859 ft | 460 kts | 175° |
| 2026-05-05 00:31 | 29.65334 | -82.28042 | 29238 ft | 459 kts | 175° |
| 2026-05-05 00:31 | 29.62190 | -82.27268 | 28629 ft | 459 kts | 175° |
| 2026-05-05 00:32 | 29.59060 | -82.26503 | 28017 ft | 458 kts | 175° |
| 2026-05-05 00:32 | 29.55978 | -82.25742 | 27437 ft | 457 kts | 174° |
| 2026-05-05 00:32 | 29.52866 | -82.24978 | 26833 ft | 453 kts | 174° |
| 2026-05-05 00:32 | 29.49827 | -82.24223 | 26234 ft | 438 kts | 174° |
| 2026-05-05 00:33 | 29.46904 | -82.23506 | 25669 ft | 427 kts | 174° |
| 2026-05-05 00:33 | 29.44027 | -82.22804 | 25116 ft | 418 kts | 174° |
| 2026-05-05 00:33 | 29.41198 | -82.22115 | 24557 ft | 411 kts | 174° |
| 2026-05-05 00:33 | 29.38415 | -82.21431 | 24016 ft | 405 kts | 174° |
| 2026-05-05 00:34 | 29.35663 | -82.20756 | 23463 ft | 400 kts | 174° |
| 2026-05-05 00:34 | 29.32955 | -82.20095 | 22904 ft | 394 kts | 174° |
| 2026-05-05 00:34 | 29.30307 | -82.19445 | 22397 ft | 388 kts | 173° |
| 2026-05-05 00:34 | 29.27734 | -82.18523 | 21884 ft | 389 kts | 162° |
| 2026-05-05 00:35 | 29.25257 | -82.17316 | 21380 ft | 384 kts | 162° |
| 2026-05-05 00:35 | 29.22796 | -82.16127 | 20871 ft | 380 kts | 162° |
| 2026-05-05 00:35 | 29.20360 | -82.14976 | 20371 ft | 378 kts | 162° |
| 2026-05-05 00:35 | 29.17897 | -82.13814 | 19865 ft | 390 kts | 162° |
| 2026-05-05 00:36 | 29.15358 | -82.12609 | 19345 ft | 395 kts | 161° |
| 2026-05-05 00:36 | 29.12803 | -82.11386 | 18817 ft | 398 kts | 161° |
| 2026-05-05 00:36 | 29.10232 | -82.10166 | 18279 ft | 400 kts | 161° |
| 2026-05-05 00:36 | 29.07686 | -82.08957 | 17721 ft | 400 kts | 161° |
| 2026-05-05 00:37 | 29.05126 | -82.07744 | 17143 ft | 390 kts | 160° |
| 2026-05-05 00:37 | 29.02676 | -82.06577 | 16626 ft | 376 kts | 160° |
| 2026-05-05 00:37 | 29.00293 | -82.05448 | 16135 ft | 364 kts | 160° |
| 2026-05-05 00:37 | 28.98149 | -82.04005 | 15647 ft | 362 kts | 140° |
| 2026-05-05 00:38 | 28.96358 | -82.01969 | 15184 ft | 359 kts | 136° |
| 2026-05-05 00:38 | 28.94622 | -81.99955 | 14716 ft | 357 kts | 135° |
| 2026-05-05 00:38 | 28.92914 | -81.97898 | 14246 ft | 355 kts | 135° |
| 2026-05-05 00:38 | 28.91221 | -81.95901 | 13779 ft | 353 kts | 135° |
| 2026-05-05 00:39 | 28.89506 | -81.93906 | 13285 ft | 350 kts | 136° |
| 2026-05-05 00:39 | 28.87798 | -81.91935 | 12827 ft | 347 kts | 138° |
| 2026-05-05 00:39 | 28.85961 | -81.90140 | 12369 ft | 344 kts | 140° |
| 2026-05-05 00:39 | 28.84215 | -81.88327 | 11958 ft | 341 kts | 139° |
| 2026-05-05 00:40 | 28.82452 | -81.86516 | 11552 ft | 338 kts | 140° |
| 2026-05-05 00:40 | 28.80690 | -81.84748 | 11084 ft | 329 kts | 141° |
| 2026-05-05 00:40 | 28.79025 | -81.83084 | 10550 ft | 316 kts | 140° |
| 2026-05-05 00:40 | 28.77415 | -81.81382 | 10039 ft | 312 kts | 138° |
| 2026-05-05 00:41 | 28.75652 | -81.80022 | 9461 ft | 301 kts | 162° |
| 2026-05-05 00:41 | 28.73699 | -81.79449 | 8911 ft | 286 kts | 171° |
| 2026-05-05 00:41 | 28.71791 | -81.79028 | 8346 ft | 268 kts | 173° |
| 2026-05-05 00:41 | 28.70014 | -81.78679 | 7894 ft | 249 kts | 173° |
| 2026-05-05 00:42 | 28.68371 | -81.78360 | 7436 ft | 239 kts | 173° |
| 2026-05-05 00:42 | 28.66736 | -81.78046 | 6999 ft | 236 kts | 173° |
| 2026-05-05 00:42 | 28.65129 | -81.77743 | 6564 ft | 233 kts | 173° |
| 2026-05-05 00:42 | 28.63524 | -81.77440 | 6135 ft | 233 kts | 173° |
| 2026-05-05 00:43 | 28.61976 | -81.77155 | 6005 ft | 222 kts | 173° |
| 2026-05-05 00:43 | 28.60482 | -81.76874 | 5983 ft | 214 kts | 173° |
| 2026-05-05 00:43 | 28.58983 | -81.76592 | 5980 ft | 221 kts | 173° |
| 2026-05-05 00:43 | 28.57459 | -81.76309 | 5976 ft | 227 kts | 173° |
| 2026-05-05 00:44 | 28.55871 | -81.76020 | 5977 ft | 233 kts | 173° |
| 2026-05-05 00:44 | 28.54246 | -81.75724 | 5912 ft | 240 kts | 173° |
| 2026-05-05 00:44 | 28.52606 | -81.75243 | 5594 ft | 249 kts | 154° |
| 2026-05-05 00:44 | 28.51323 | -81.73970 | 5228 ft | 242 kts | 136° |
| 2026-05-05 00:45 | 28.50189 | -81.72583 | 4864 ft | 235 kts | 133° |
| 2026-05-05 00:45 | 28.49101 | -81.71224 | 4489 ft | 228 kts | 133° |
| 2026-05-05 00:45 | 28.48029 | -81.69914 | 4116 ft | 223 kts | 133° |
| 2026-05-05 00:45 | 28.46969 | -81.68662 | 3747 ft | 216 kts | 133° |
| 2026-05-05 00:46 | 28.46164 | -81.67298 | 3377 ft | 210 kts | 102° |
| 2026-05-05 00:46 | 28.46247 | -81.65669 | 3107 ft | 201 kts | 83° |
| 2026-05-05 00:46 | 28.46350 | -81.64162 | 3025 ft | 185 kts | 88° |
| 2026-05-05 00:46 | 28.46373 | -81.62754 | 2994 ft | 174 kts | 91° |
| 2026-05-05 00:47 | 28.46368 | -81.61400 | 2988 ft | 163 kts | 90° |
| 2026-05-05 00:47 | 28.46357 | -81.60178 | 2997 ft | 152 kts | 90° |
| 2026-05-05 00:47 | 28.46354 | -81.58986 | 2996 ft | 148 kts | 91° |
| 2026-05-05 00:47 | 28.46350 | -81.57833 | 2992 ft | 145 kts | 91° |
| 2026-05-05 00:48 | 28.46342 | -81.56695 | 2992 ft | 142 kts | 90° |
| 2026-05-05 00:48 | 28.46384 | -81.55572 | 2994 ft | 141 kts | 88° |
| 2026-05-05 00:48 | 28.46555 | -81.54473 | 2996 ft | 143 kts | 70° |
| 2026-05-05 00:48 | 28.46921 | -81.53402 | 2999 ft | 150 kts | 72° |
| 2026-05-05 00:49 | 28.47332 | -81.52282 | 3004 ft | 154 kts | 68° |
| 2026-05-05 00:49 | 28.47751 | -81.51165 | 3007 ft | 157 kts | 69° |
| 2026-05-05 00:49 | 28.48187 | -81.50014 | 3008 ft | 159 kts | 69° |
| 2026-05-05 00:49 | 28.48617 | -81.48888 | 2893 ft | 144 kts | 69° |
| 2026-05-05 00:50 | 28.48998 | -81.47884 | 2706 ft | 133 kts | 69° |
| 2026-05-05 00:50 | 28.49354 | -81.46944 | 2528 ft | 129 kts | 70° |
| 2026-05-05 00:50 | 28.49708 | -81.46016 | 2362 ft | 125 kts | 70° |
| 2026-05-05 00:50 | 28.50051 | -81.45115 | 2198 ft | 122 kts | 69° |
| 2026-05-05 00:51 | 28.50376 | -81.44257 | 2037 ft | 112 kts | 70° |
| 2026-05-05 00:51 | 28.50664 | -81.43498 | 1891 ft | 100 kts | 71° |
| 2026-05-05 00:51 | 28.50846 | -81.43031 | 1801 ft | 94 kts | 70° |
| 2026-05-05 00:51 | 28.51173 | -81.42154 | 1639 ft | 92 kts | 69° |
| 2026-05-05 00:52 | 28.51347 | -81.41695 | 1565 ft | 98 kts | 71° |
| 2026-05-05 00:52 | 28.51724 | -81.40700 | 1405 ft | 107 kts | 69° |
| 2026-05-05 00:52 | 28.51916 | -81.40189 | 1307 ft | 104 kts | 68° |
| 2026-05-05 00:52 | 28.52202 | -81.39432 | 1167 ft | 104 kts | 70° |
| 2026-05-05 00:53 | 28.52583 | -81.38428 | 986 ft | 104 kts | 69° |
| 2026-05-05 00:53 | 28.52777 | -81.37921 | 887 ft | 103 kts | 69° |
| 2026-05-05 00:53 | 28.53058 | -81.37177 | 751 ft | 104 kts | 68° |
| 2026-05-05 00:53 | 28.53350 | -81.36407 | 612 ft | 106 kts | 70° |
| 2026-05-05 00:54 | 28.53629 | -81.35638 | 494 ft | 104 kts | 69° |
| 2026-05-05 00:54 | 28.53911 | -81.34918 | 324 ft | 99 kts | 71° |
| 2026-05-05 00:54 | 28.54180 | -81.34204 | 213 ft | 96 kts | 70° |
| 2026-05-05 00:54 | 28.54422 | -81.33557 | 107 ft | 80 kts | 70° |
| 2026-05-05 00:55 | 28.54588 | -81.33127 | 113 ft | 39 kts | 66° |
| 2026-05-05 00:55 | 28.54689 | -81.32869 | 109 ft | 31 kts | 63° |
| 2026-05-05 00:55 | 28.54762 | -81.32828 | 111 ft | 6 kts | 304° |
| 2026-05-05 00:55 | 28.54788 | -81.32874 | 111 ft | 7 kts | 302° |
| 2026-05-05 00:56 | 28.54811 | -81.32924 | 110 ft | 7 kts | 273° |
| 2026-05-05 00:56 | 28.54794 | -81.32980 | 109 ft | 8 kts | 248° |
| 2026-05-05 00:56 | 28.54768 | -81.33049 | 109 ft | 13 kts | 246° |
| 2026-05-05 00:56 | 28.54733 | -81.33143 | 111 ft | 13 kts | 255° |
| 2026-05-05 00:57 | 28.54717 | -81.33247 | 110 ft | 14 kts | 264° |
| 2026-05-05 00:57 | 28.54706 | -81.33367 | 109 ft | 16 kts | 264° |
| 2026-05-05 00:57 | 28.54694 | -81.33496 | 108 ft | 17 kts | 263° |
| 2026-05-05 00:57 | 28.54721 | -81.33567 | 109 ft | 10 kts | 347° |
| 2026-05-05 00:58 | 28.54783 | -81.33538 | 108 ft | 11 kts | 44° |
| 2026-05-05 00:58 | 28.54841 | -81.33491 | 109 ft | 10 kts | 14° |
| 2026-05-05 00:58 | 28.54874 | -81.33499 | 109 ft | 9 kts | 358° |
| 2026-05-05 00:58 | 28.54884 | -81.33511 | 109 ft | 0 kts | 224° |